Time;durP1;ratioP1;P1;durP2;ratioP2;P2;SDS_P1;SDS_P2;PMS_P1;PMS_P2;Temp;Humidity;BMP_temperature;BMP_pressure;BME280_temperature;BME280_humidity;BME280_pressure;Samples;Min_cycle;Max_cycle;Signal;HPM_P1;HPM_P2
2023/10/04 00:00:15;;;;;;;75.53;71.90;;;;;;;12.78;100.00;101575.94;4995121;28;21000;-39
2023/10/04 00:02:45;;;;;;;90.27;86.00;;;;;;;12.75;100.00;101576.31;4994464;28;20492;-40
2023/10/04 00:05:15;;;;;;;82.40;78.40;;;;;;;12.75;100.00;101581.66;4994418;28;20810;-42
2023/10/04 00:07:45;;;;;;;80.30;76.80;;;;;;;12.73;100.00;101589.06;4994473;28;20473;-41
2023/10/04 00:10:14;;;;;;;88.43;83.97;;;;;;;12.72;100.00;101592.75;4993890;28;20470;-40
2023/10/04 00:12:42;;;;;;;88.17;84.40;;;;;;;12.74;100.00;101590.72;4993148;28;20531;-40
2023/10/04 00:15:12;;;;;;;89.97;86.07;;;;;;;12.76;100.00;101593.22;4993346;28;20485;-40
2023/10/04 00:17:42;;;;;;;82.03;78.30;;;;;;;12.78;100.00;101600.03;4994064;28;20473;-41
2023/10/04 00:20:13;;;;;;;83.47;79.57;;;;;;;12.83;100.00;101620.03;4993259;28;20492;-45
2023/10/04 00:22:42;;;;;;;86.80;83.27;;;;;;;12.87;100.00;101624.84;4993528;28;20732;-41
2023/10/04 00:25:12;;;;;;;88.47;84.60;;;;;;;12.90;100.00;101623.63;4993977;28;20426;-42
2023/10/04 00:27:41;;;;;;;87.43;83.50;;;;;;;12.89;100.00;101620.13;4993761;28;20871;-41
2023/10/04 00:30:12;;;;;;;93.53;89.33;;;;;;;12.90;100.00;101620.97;5003106;28;20461;-41
2023/10/04 00:32:39;;;;;;;97.70;93.10;;;;;;;12.87;100.00;101624.84;5013363;28;20473;-42
2023/10/04 00:35:11;;;;;;;98.83;94.20;;;;;;;12.85;100.00;101626.03;5013391;28;20441;-42
2023/10/04 00:37:42;;;;;;;107.90;103.63;;;;;;;12.79;100.00;101630.31;5013226;28;20921;-40
2023/10/04 00:40:18;;;;;;;111.80;107.17;;;;;;;12.76;100.00;101634.19;5012577;28;20493;-42
2023/10/04 00:42:49;;;;;;;113.47;108.20;;;;;;;12.73;100.00;101629.22;5013514;28;20528;-41
2023/10/04 00:45:17;;;;;;;110.20;105.40;;;;;;;12.72;100.00;101626.75;5013324;28;20532;-41
2023/10/04 00:47:47;;;;;;;115.93;109.90;;;;;;;12.71;100.00;101627.75;5006856;28;20434;-40
2023/10/04 00:50:16;;;;;;;113.30;107.67;;;;;;;12.72;100.00;101632.91;5011297;28;20492;-41
2023/10/04 00:52:50;;;;;;;108.83;103.70;;;;;;;12.75;100.00;101632.53;5013046;28;20468;-42
2023/10/04 00:55:19;;;;;;;109.43;104.10;;;;;;;12.78;100.00;101626.78;5004987;28;20497;-40
2023/10/04 00:57:51;;;;;;;107.53;102.60;;;;;;;12.84;100.00;101627.06;5006328;28;20977;-39
2023/10/04 01:00:19;;;;;;;109.90;105.03;;;;;;;12.86;100.00;101630.38;4992855;28;20841;-39
2023/10/04 01:02:47;;;;;;;106.23;101.53;;;;;;;12.86;100.00;101633.88;5007869;28;20429;-40
2023/10/04 01:05:17;;;;;;;100.47;95.57;;;;;;;12.88;100.00;101636.34;5013190;28;20437;-40
2023/10/04 01:07:48;;;;;;;103.93;99.63;;;;;;;12.93;100.00;101636.63;5004794;28;20937;-40
2023/10/04 01:10:16;;;;;;;106.90;102.30;;;;;;;12.97;100.00;101641.41;5012233;28;20544;-41
2023/10/04 01:12:46;;;;;;;106.93;101.93;;;;;;;13.00;100.00;101634.84;4998402;28;20480;-42
2023/10/04 01:15:30;;;;;;;110.73;105.70;;;;;;;13.02;100.00;101646.22;4992917;28;20437;-41
2023/10/04 01:17:59;;;;;;;113.40;108.67;;;;;;;12.99;100.00;101647.41;4992543;28;20438;-40
2023/10/04 01:20:30;;;;;;;116.73;112.07;;;;;;;12.99;100.00;101654.63;4992476;28;20466;-42
2023/10/04 01:23:02;;;;;;;119.00;113.73;;;;;;;12.95;100.00;101654.16;4993231;28;20524;-40
2023/10/04 01:25:31;;;;;;;121.60;116.40;;;;;;;12.92;100.00;101646.50;4992833;28;20470;-41
2023/10/04 01:28:00;;;;;;;126.37;120.70;;;;;;;12.90;100.00;101647.72;4992385;28;20430;-43
2023/10/04 01:30:29;;;;;;;120.43;115.40;;;;;;;12.87;100.00;101638.22;5004290;28;20479;-40
2023/10/04 01:33:00;;;;;;;122.60;117.10;;;;;;;12.82;100.00;101650.50;5012047;28;20480;-42
2023/10/04 01:35:28;;;;;;;125.13;120.03;;;;;;;12.80;100.00;101645.34;5012018;28;20532;-39
2023/10/04 01:37:55;;;;;;;127.63;122.30;;;;;;;12.76;100.00;101647.56;5012032;28;21207;-40
2023/10/04 01:40:26;;;;;;;130.37;124.63;;;;;;;12.73;100.00;101650.63;5011559;28;20453;-42
2023/10/04 01:42:55;;;;;;;134.60;128.37;;;;;;;12.71;100.00;101647.31;5012517;28;20429;-39
2023/10/04 01:45:23;;;;;;;136.00;130.00;;;;;;;12.71;100.00;101654.50;5012245;28;20448;-40
2023/10/04 01:47:51;;;;;;;133.87;127.63;;;;;;;12.69;100.00;101643.97;5011820;28;20440;-40
2023/10/04 01:50:19;;;;;;;132.20;127.10;;;;;;;12.69;100.00;101646.66;5011431;28;20465;-43
2023/10/04 01:52:48;;;;;;;138.60;131.60;;;;;;;12.68;100.00;101649.53;5012010;28;20484;-42
2023/10/04 01:55:17;;;;;;;134.43;128.33;;;;;;;12.70;100.00;101659.03;5012107;28;20527;-41
2023/10/04 01:57:46;;;;;;;134.93;129.40;;;;;;;12.71;100.00;101663.38;5012023;28;20460;-40
2023/10/04 02:00:18;;;;;;;133.23;127.30;;;;;;;12.72;100.00;101654.31;5011295;28;20461;-39
2023/10/04 02:02:47;;;;;;;131.77;125.97;;;;;;;12.75;100.00;101661.16;5012144;28;20829;-41
2023/10/04 02:05:26;;;;;;;126.13;120.83;;;;;;;12.77;100.00;101670.66;5011557;28;20440;-40
2023/10/04 02:07:54;;;;;;;135.10;128.73;;;;;;;12.78;100.00;101666.94;5011862;28;21103;-41
2023/10/04 02:10:22;;;;;;;129.37;123.83;;;;;;;12.80;100.00;101671.28;5011339;28;20471;-42
2023/10/04 02:12:53;;;;;;;133.40;126.90;;;;;;;12.78;100.00;101669.63;5011708;28;20572;-40
2023/10/04 02:15:21;;;;;;;123.27;117.80;;;;;;;12.77;100.00;101664.47;5011586;28;20441;-42
2023/10/04 02:17:53;;;;;;;117.27;111.67;;;;;;;12.79;100.00;101667.78;5011227;28;20437;-39
2023/10/04 02:20:23;;;;;;;111.17;105.87;;;;;;;12.81;100.00;101679.13;5010380;28;20471;-41
2023/10/04 02:22:55;;;;;;;113.63;107.80;;;;;;;12.82;100.00;101683.47;5012056;28;20468;-44
2023/10/04 02:25:24;;;;;;;106.63;101.27;;;;;;;12.85;100.00;101672.38;5011603;28;20440;-43
2023/10/04 02:27:55;;;;;;;102.47;97.63;;;;;;;12.87;100.00;101673.03;4996738;28;20449;-42
2023/10/04 02:30:26;;;;;;;107.40;102.17;;;;;;;12.89;100.00;101668.31;4991272;28;20470;-44
2023/10/04 02:32:55;;;;;;;94.60;90.20;;;;;;;12.89;100.00;101665.63;4992047;28;20488;-40
2023/10/04 02:35:26;;;;;;;87.33;83.17;;;;;;;12.93;100.00;101666.09;4992134;28;20871;-43
2023/10/04 02:37:59;;;;;;;88.73;83.60;;;;;;;12.95;100.00;101669.41;4991728;28;20469;-42
2023/10/04 02:40:32;;;;;;;79.93;76.03;;;;;;;12.99;100.00;101671.50;4991418;28;20485;-40
2023/10/04 02:43:03;;;;;;;88.97;84.17;;;;;;;13.01;100.00;101674.81;4991857;28;20434;-42
2023/10/04 02:45:31;;;;;;;76.83;72.90;;;;;;;13.03;100.00;101667.44;4993697;28;20528;-42
2023/10/04 02:47:59;;;;;;;81.37;77.30;;;;;;;13.05;100.00;101669.94;4995592;28;20437;-42
2023/10/04 02:50:28;;;;;;;71.00;67.00;;;;;;;13.08;100.00;101680.28;4995177;28;20461;-40
2023/10/04 02:52:56;;;;;;;69.83;65.63;;;;;;;13.10;100.00;101676.41;4995630;28;20841;-43
2023/10/04 02:55:24;;;;;;;59.63;56.20;;;;;;;13.11;100.00;101669.19;4995533;28;20437;-42
2023/10/04 02:57:53;;;;;;;57.10;53.90;;;;;;;13.11;100.00;101672.69;4995616;28;20440;-40
2023/10/04 03:00:23;;;;;;;64.33;60.03;;;;;;;13.10;100.00;101679.06;4994788;28;21088;-42
2023/10/04 03:02:53;;;;;;;51.43;48.57;;;;;;;13.06;100.00;101669.72;4995668;28;20492;-41
2023/10/04 03:05:21;;;;;;;56.27;53.20;;;;;;;13.06;100.00;101666.22;4995887;28;20434;-40
2023/10/04 03:07:52;;;;;;;51.17;48.23;;;;;;;13.01;100.00;101663.28;4995236;28;20434;-39
2023/10/04 03:10:24;;;;;;;48.10;45.23;;;;;;;13.01;100.00;101660.59;4994702;28;20461;-40
2023/10/04 03:12:53;;;;;;;50.67;47.57;;;;;;;12.98;100.00;101667.19;4995407;28;20824;-40
2023/10/04 03:15:23;;;;;;;49.17;46.50;;;;;;;12.96;100.00;101665.72;4995243;28;20433;-42
2023/10/04 03:17:54;;;;;;;54.40;51.27;;;;;;;12.91;100.00;101663.59;4995023;28;20492;-42
2023/10/04 03:20:24;;;;;;;49.13;46.27;;;;;;;12.89;100.00;101664.78;5004854;28;20464;-42
2023/10/04 03:22:55;;;;;;;47.93;44.70;;;;;;;12.88;100.00;101671.16;5015068;28;20439;-40
2023/10/04 03:25:24;;;;;;;49.80;46.90;;;;;;;12.88;100.00;101668.47;4998615;28;20464;-41
2023/10/04 03:27:53;;;;;;;52.00;48.83;;;;;;;12.88;100.00;101680.03;5014216;28;20479;-40
2023/10/04 03:30:22;;;;;;;49.57;46.50;;;;;;;12.89;100.00;101679.03;4997914;28;20465;-43
2023/10/04 03:32:52;;;;;;;50.97;47.87;;;;;;;12.89;100.00;101678.19;5014483;28;20521;-41
2023/10/04 03:35:21;;;;;;;51.73;48.43;;;;;;;12.90;100.00;101683.38;5014528;28;20472;-42
2023/10/04 03:37:54;;;;;;;51.17;48.07;;;;;;;12.94;100.00;101689.97;5008677;28;20525;-39
2023/10/04 03:40:23;;;;;;;44.93;42.27;;;;;;;12.97;100.00;101694.97;5004472;28;20574;-39
2023/10/04 03:42:51;;;;;;;45.37;42.60;;;;;;;13.03;100.00;101690.69;5000155;28;20429;-40
2023/10/04 03:45:20;;;;;;;47.27;44.40;;;;;;;13.05;100.00;101699.38;5012340;28;20483;-41
2023/10/04 03:47:50;;;;;;;48.57;45.60;;;;;;;13.07;100.00;101705.38;5014405;28;20445;-39
2023/10/04 03:50:19;;;;;;;49.47;46.60;;;;;;;13.08;100.00;101699.03;5013100;28;20476;-40
2023/10/04 03:52:48;;;;;;;55.87;52.60;;;;;;;13.07;100.00;101708.03;5013907;28;20487;-40
2023/10/04 03:55:15;;;;;;;56.17;52.20;;;;;;;13.04;100.00;101703.91;5013580;28;20555;-42
2023/10/04 03:57:44;;;;;;;50.27;47.43;;;;;;;12.96;100.00;101706.69;5012493;28;20437;-40
2023/10/04 04:00:16;;;;;;;54.73;51.37;;;;;;;12.95;100.00;101706.88;5012184;28;20522;-40
2023/10/04 04:02:45;;;;;;;56.27;53.07;;;;;;;12.90;100.00;101715.50;4998873;28;20443;-42
2023/10/04 04:05:15;;;;;;;58.40;54.90;;;;;;;12.87;100.00;101715.03;5013409;28;20765;-40
2023/10/04 04:07:42;;;;;;;57.90;55.17;;;;;;;12.84;100.00;101718.09;5013368;28;21091;-43
2023/10/04 04:10:12;;;;;;;62.50;58.87;;;;;;;12.81;100.00;101715.78;4996067;28;20466;-42
2023/10/04 04:12:40;;;;;;;62.57;59.10;;;;;;;12.76;100.00;101717.16;4997989;28;20476;-42
2023/10/04 04:15:10;;;;;;;63.23;59.73;;;;;;;12.73;100.00;101717.53;5013577;28;20483;-42
2023/10/04 04:17:39;;;;;;;62.97;59.80;;;;;;;12.69;100.00;101712.75;4997865;28;20921;-40
2023/10/04 04:20:14;;;;;;;70.33;66.63;;;;;;;12.66;100.00;101718.47;5012380;28;20461;-43
2023/10/04 04:22:45;;;;;;;73.63;69.57;;;;;;;12.64;100.00;101718.66;5013177;28;20869;-41
2023/10/04 04:25:15;;;;;;;70.03;66.17;;;;;;;12.63;100.00;101716.19;5013328;28;20527;-42
2023/10/04 04:27:47;;;;;;;67.90;64.40;;;;;;;12.60;100.00;101712.00;5011041;28;20956;-39
2023/10/04 04:30:20;;;;;;;72.60;68.87;;;;;;;12.55;100.00;101709.06;5011813;28;20495;-40
2023/10/04 04:32:52;;;;;;;74.63;70.63;;;;;;;12.50;100.00;101718.66;5013115;28;20779;-40
2023/10/04 04:35:34;;;;;;;78.83;75.23;;;;;;;12.46;100.00;101723.56;5013069;28;20512;-42
2023/10/04 04:38:13;;;;;;;75.67;72.33;;;;;;;12.40;100.00;101736.81;5012875;28;20433;-40
2023/10/04 04:40:44;;;;;;;79.70;76.20;;;;;;;12.36;100.00;101733.72;4993060;28;20458;-42
2023/10/04 04:43:35;;;;;;;79.93;75.80;;;;;;;12.31;100.00;101748.63;4993192;28;20517;-42
2023/10/04 04:46:09;;;;;;;82.67;78.97;;;;;;;12.29;100.00;101748.81;4993116;28;20521;-41
2023/10/04 04:48:37;;;;;;;83.77;79.70;;;;;;;12.25;100.00;101752.03;5003967;28;20956;-44
2023/10/04 04:51:12;;;;;;;89.07;84.83;;;;;;;12.23;100.00;101759.41;5012665;28;20433;-42
2023/10/04 04:53:42;;;;;;;87.57;83.77;;;;;;;12.20;100.00;101768.63;5012565;28;20487;-40
2023/10/04 04:56:14;;;;;;;89.47;84.97;;;;;;;12.19;100.00;101775.81;5012392;28;20465;-40
2023/10/04 04:58:43;;;;;;;87.80;83.90;;;;;;;12.17;100.00;101764.50;5011733;28;20550;-41
2023/10/04 05:01:13;;;;;;;96.27;91.60;;;;;;;12.15;100.00;101768.38;5012347;28;20437;-39
2023/10/04 05:03:43;;;;;;;94.87;89.43;;;;;;;12.13;100.00;101768.53;4992992;28;20843;-42
2023/10/04 05:06:14;;;;;;;97.77;92.13;;;;;;;12.10;100.00;101773.41;4992759;28;20434;-46
2023/10/04 05:08:44;;;;;;;88.57;84.47;;;;;;;12.11;100.00;101772.41;4991982;28;20462;-40
2023/10/04 05:11:11;;;;;;;86.10;82.20;;;;;;;12.14;100.00;101782.75;4992737;28;20563;-40
2023/10/04 05:13:40;;;;;;;86.90;82.70;;;;;;;12.16;100.00;101796.75;4992746;28;20441;-40
2023/10/04 05:16:08;;;;;;;84.80;80.40;;;;;;;12.17;100.00;101793.06;4992622;28;20485;-42
2023/10/04 05:18:37;;;;;;;84.37;80.47;;;;;;;12.15;100.00;101782.56;5003053;28;20449;-44
2023/10/04 05:21:05;;;;;;;87.77;82.90;;;;;;;12.16;100.00;101791.41;4996784;28;20847;-40
2023/10/04 05:23:33;;;;;;;83.77;79.97;;;;;;;12.17;100.00;101795.75;4995163;28;20529;-42
2023/10/04 05:26:03;;;;;;;78.53;74.83;;;;;;;12.17;100.00;101795.75;5012442;28;20429;-40
2023/10/04 05:28:31;;;;;;;80.20;76.50;;;;;;;12.16;100.00;101802.94;5011553;28;20438;-42
2023/10/04 05:30:59;;;;;;;85.27;80.97;;;;;;;12.15;100.00;101811.16;5012167;28;20436;-44
2023/10/04 05:33:26;;;;;;;87.60;83.40;;;;;;;12.16;100.00;101812.78;4993782;28;20946;-40
2023/10/04 05:35:55;;;;;;;87.30;82.43;;;;;;;12.14;100.00;101810.31;4991884;28;20889;-42
2023/10/04 05:38:24;;;;;;;84.33;80.23;;;;;;;12.19;100.00;101809.75;4991291;28;20434;-40
2023/10/04 05:40:52;;;;;;;82.27;77.73;;;;;;;12.21;100.00;101807.75;5005502;28;20433;-42
2023/10/04 05:43:21;;;;;;;86.83;82.73;;;;;;;12.23;100.00;101820.94;5011516;28;20937;-42
2023/10/04 05:45:50;;;;;;;92.90;88.53;;;;;;;12.22;100.00;101825.44;4998636;28;20908;-42
2023/10/04 05:48:19;;;;;;;93.37;88.90;;;;;;;12.24;100.00;101828.78;4990823;28;20442;-43
2023/10/04 05:50:49;;;;;;;95.20;90.43;;;;;;;12.24;100.00;101818.09;4992145;28;20518;-42
2023/10/04 05:53:19;;;;;;;87.03;83.07;;;;;;;12.29;100.00;101826.38;4992148;28;20465;-40
2023/10/04 05:55:48;;;;;;;78.10;74.20;;;;;;;12.39;100.00;101834.16;4991749;28;20815;-42
2023/10/04 05:58:18;;;;;;;73.30;69.63;;;;;;;12.54;100.00;101835.84;4990793;28;20894;-42
2023/10/04 06:00:51;;;;;;;65.43;61.73;;;;;;;12.70;100.00;101838.34;4996068;28;20468;-42
2023/10/04 06:03:20;;;;;;;62.40;58.80;;;;;;;12.82;100.00;101833.34;5002483;28;20438;-41
2023/10/04 06:05:50;;;;;;;58.10;54.90;;;;;;;13.02;100.00;101834.44;4992066;28;20434;-42
2023/10/04 06:08:19;;;;;;;53.70;51.10;;;;;;;13.22;100.00;101837.44;5007869;28;20433;-45
2023/10/04 06:10:48;;;;;;;54.50;51.47;;;;;;;13.37;100.00;101840.09;4998753;28;20517;-43
2023/10/04 06:13:17;;;;;;;53.73;50.63;;;;;;;13.47;100.00;101835.25;4991620;28;20938;-42
2023/10/04 06:15:48;;;;;;;51.27;48.00;;;;;;;13.66;100.00;101837.31;4992145;28;20473;-41
2023/10/04 06:18:17;;;;;;;51.93;48.90;;;;;;;13.71;100.00;101841.06;5007321;28;20437;-42
2023/10/04 06:20:45;;;;;;;51.97;48.93;;;;;;;13.72;100.00;101833.88;5007068;28;20438;-43
2023/10/04 06:23:17;;;;;;;50.13;47.57;;;;;;;13.77;100.00;101843.00;4991463;28;21080;-42
2023/10/04 06:25:46;;;;;;;50.97;47.63;;;;;;;13.78;100.00;101850.03;4991122;28;20813;-40
2023/10/04 06:28:14;;;;;;;49.53;46.33;;;;;;;13.77;100.00;101848.38;4991421;28;20465;-41
2023/10/04 06:30:45;;;;;;;49.77;46.97;;;;;;;13.80;100.00;101858.72;5002770;28;20864;-42
2023/10/04 06:33:15;;;;;;;46.80;44.37;;;;;;;13.83;100.00;101857.50;5011077;28;20460;-41
2023/10/04 06:35:43;;;;;;;47.00;44.17;;;;;;;13.89;100.00;101854.03;4998902;28;20853;-41
2023/10/04 06:38:13;;;;;;;47.03;44.60;;;;;;;14.08;100.00;101864.16;4990640;28;20491;-42
2023/10/04 06:40:42;;;;;;;44.63;41.73;;;;;;;14.12;100.00;101859.22;4994156;28;20530;-43
2023/10/04 06:43:11;;;;;;;44.33;41.77;;;;;;;14.22;100.00;101859.72;5011340;28;20512;-42
2023/10/04 06:45:41;;;;;;;43.07;40.70;;;;;;;14.28;100.00;101865.16;5002782;28;20804;-42
2023/10/04 06:48:09;;;;;;;44.27;41.47;;;;;;;14.32;100.00;101866.47;5010363;28;20993;-42
2023/10/04 06:50:39;;;;;;;44.17;41.77;;;;;;;14.37;100.00;101864.03;5010149;28;20469;-40
2023/10/04 06:53:09;;;;;;;48.50;45.90;;;;;;;14.38;100.00;101873.75;5003861;28;21033;-40
2023/10/04 06:55:38;;;;;;;49.50;46.13;;;;;;;14.36;100.00;101873.13;4991342;28;20488;-42
2023/10/04 06:58:10;;;;;;;45.90;43.30;;;;;;;14.34;100.00;101874.31;4991078;28;20934;-44
2023/10/04 07:00:40;;;;;;;45.03;42.23;;;;;;;14.31;100.00;101878.19;4993461;28;20461;-41
2023/10/04 07:03:09;;;;;;;45.33;42.73;;;;;;;14.45;100.00;101884.53;5010741;28;20436;-41
2023/10/04 07:05:40;;;;;;;48.17;44.87;;;;;;;14.53;100.00;101888.91;5010886;28;20444;-42
2023/10/04 07:08:12;;;;;;;46.20;43.80;;;;;;;14.70;100.00;101896.47;5004127;28;20445;-39
2023/10/04 07:10:41;;;;;;;43.97;41.47;;;;;;;14.93;100.00;101904.31;4993911;28;20560;-43
2023/10/04 07:13:09;;;;;;;44.17;41.40;;;;;;;15.17;100.00;101908.38;5010792;28;20435;-45
2023/10/04 07:15:39;;;;;;;43.43;40.80;;;;;;;15.30;100.00;101906.56;5011187;28;20571;-43
2023/10/04 07:18:10;;;;;;;46.13;43.13;;;;;;;15.41;100.00;101913.25;4995649;28;20438;-41
2023/10/04 07:20:40;;;;;;;45.30;42.73;;;;;;;15.48;100.00;101916.81;5009534;28;20495;-43
2023/10/04 07:23:10;;;;;;;47.20;44.20;;;;;;;15.42;100.00;101917.56;4995639;28;20493;-42
2023/10/04 07:25:43;;;;;;;46.27;43.70;;;;;;;15.63;100.00;101933.63;4991234;28;20433;-41
2023/10/04 07:28:11;;;;;;;46.93;44.03;;;;;;;15.85;100.00;101939.72;4997833;28;20552;-41
2023/10/04 07:30:40;;;;;;;46.87;43.93;;;;;;;16.05;100.00;101940.59;4999175;28;20477;-42
2023/10/04 07:33:09;;;;;;;46.90;43.43;;;;;;;16.15;100.00;101943.72;5007985;28;20476;-46
2023/10/04 07:35:39;;;;;;;44.27;41.87;;;;;;;16.40;100.00;101943.94;5013962;28;20476;-41
2023/10/04 07:38:07;;;;;;;44.47;41.67;;;;;;;16.52;100.00;101936.94;5005611;28;20432;-42
2023/10/04 07:40:37;;;;;;;43.10;40.70;;;;;;;16.52;100.00;101939.63;5013168;28;20576;-42
2023/10/04 07:43:07;;;;;;;46.23;43.90;;;;;;;16.47;100.00;101944.81;4999728;28;20469;-42
2023/10/04 07:45:34;;;;;;;44.37;41.50;;;;;;;16.55;100.00;101944.63;4994364;28;20429;-48
2023/10/04 07:48:03;;;;;;;45.50;42.47;;;;;;;16.59;100.00;101948.56;4994273;28;20434;-44
2023/10/04 07:50:31;;;;;;;45.50;42.70;;;;;;;16.74;100.00;101951.88;4993720;28;20469;-43
2023/10/04 07:53:04;;;;;;;45.30;42.67;;;;;;;16.79;100.00;101954.78;4994012;28;20430;-40
2023/10/04 07:55:33;;;;;;;46.13;43.70;;;;;;;16.84;100.00;101957.69;4993768;28;20446;-40
2023/10/04 07:58:03;;;;;;;45.60;43.27;;;;;;;16.85;100.00;101950.41;4993495;28;20921;-43
2023/10/04 08:00:33;;;;;;;43.83;41.23;;;;;;;16.88;100.00;101942.75;4993638;28;20466;-40
2023/10/04 08:03:01;;;;;;;48.80;44.90;;;;;;;16.99;100.00;101947.50;4994073;28;20455;-40
2023/10/04 08:05:31;;;;;;;44.80;42.10;;;;;;;17.07;100.00;101952.69;4994014;28;20495;-44
2023/10/04 08:08:01;;;;;;;42.57;40.30;;;;;;;17.12;100.00;101952.03;4993675;28;20441;-43
2023/10/04 08:10:33;;;;;;;41.77;38.97;;;;;;;17.19;100.00;101947.47;4993599;28;20845;-42
2023/10/04 08:13:03;;;;;;;38.77;36.53;;;;;;;17.23;100.00;101955.97;4994047;28;20865;-40
2023/10/04 08:15:35;;;;;;;43.50;41.20;;;;;;;17.36;100.00;101956.75;4993547;28;20937;-45
2023/10/04 08:18:04;;;;;;;41.27;38.33;;;;;;;17.40;100.00;101955.31;4999205;28;20432;-42
2023/10/04 08:20:32;;;;;;;39.07;36.80;;;;;;;17.40;100.00;101957.16;5011481;28;20472;-40
2023/10/04 08:23:03;;;;;;;37.07;34.47;;;;;;;17.45;100.00;101947.41;5007779;28;20429;-40
2023/10/04 08:25:33;;;;;;;40.27;37.47;;;;;;;17.53;100.00;101949.06;5013284;28;20476;-41
2023/10/04 08:28:03;;;;;;;41.00;38.40;;;;;;;17.58;100.00;101952.78;4995703;28;20496;-40
2023/10/04 08:30:31;;;;;;;45.73;41.80;;;;;;;17.77;100.00;101956.44;5002615;28;20464;-44
2023/10/04 08:33:00;;;;;;;36.57;33.97;;;;;;;17.69;100.00;101954.81;5013618;28;20484;-43
2023/10/04 08:35:29;;;;;;;35.23;33.13;;;;;;;17.73;100.00;101960.63;5013206;28;20464;-41
2023/10/04 08:37:58;;;;;;;38.83;36.17;;;;;;;17.78;100.00;101960.78;5012967;28;20831;-45
2023/10/04 08:40:29;;;;;;;32.73;30.83;;;;;;;17.81;100.00;101964.94;5011915;28;20465;-42
2023/10/04 08:42:58;;;;;;;34.17;31.80;;;;;;;17.96;100.00;101960.91;5000044;28;21035;-42
2023/10/04 08:45:29;;;;;;;34.03;31.33;;;;;;;17.83;100.00;101960.16;5016554;28;20432;-42
2023/10/04 08:47:58;;;;;;;33.53;30.90;;;;;;;17.93;100.00;101965.91;5020275;28;20429;-39
2023/10/04 08:50:30;;;;;;;31.50;29.53;;;;;;;17.92;100.00;101961.56;5011486;28;20493;-39
2023/10/04 08:53:04;;;;;;;32.70;30.80;;;;;;;18.05;100.00;101956.09;5020533;28;20448;-40
2023/10/04 08:55:39;;;;;;;32.33;30.63;;;;;;;17.99;100.00;101955.09;5020144;28;20440;-45
2023/10/04 08:58:09;;;;;;;32.67;30.77;;;;;;;18.10;100.00;101959.78;5020752;28;20499;-44
2023/10/04 09:00:43;;;;;;;33.10;30.83;;;;;;;18.23;100.00;101962.41;5019489;28;20475;-42
2023/10/04 09:03:13;;;;;;;32.10;30.20;;;;;;;18.29;100.00;101960.72;5013117;28;20429;-40
2023/10/04 09:05:46;;;;;;;33.77;31.33;;;;;;;18.37;100.00;101946.94;5000506;28;20432;-40
2023/10/04 09:08:16;;;;;;;32.50;30.13;;;;;;;18.39;100.00;101960.25;5006528;28;20435;-42
2023/10/04 09:10:46;;;;;;;31.53;29.43;;;;;;;18.45;100.00;101956.66;5019699;28;20483;-42
2023/10/04 09:13:13;;;;;;;30.20;27.97;;;;;;;18.49;100.00;101961.44;5011754;28;20635;-40
2023/10/04 09:15:41;;;;;;;29.63;27.30;;;;;;;18.27;100.00;101962.81;5020259;28;20456;-40
2023/10/04 09:18:10;;;;;;;31.70;29.40;;;;;;;18.53;100.00;101969.94;5020053;28;20559;-40
2023/10/04 09:20:39;;;;;;;28.10;26.67;;;;;;;18.46;100.00;101961.00;5011095;28;20461;-45
2023/10/04 09:23:20;;;;;;;27.60;25.60;;;;;;;18.42;100.00;101960.63;5019885;28;20441;-44
2023/10/04 09:25:54;;;;;;;28.43;26.00;;;;;;;18.45;100.00;101968.31;5019673;28;20429;-39
2023/10/04 09:28:38;;;;;;;31.53;29.00;;;;;;;18.53;100.00;101972.63;5003453;28;20824;-40
2023/10/04 09:31:10;;;;;;;28.10;25.93;;;;;;;18.67;100.00;101974.19;5008536;28;20837;-39
2023/10/04 09:33:38;;;;;;;29.00;26.70;;;;;;;18.69;100.00;101972.09;5010413;28;20509;-43
2023/10/04 09:36:07;;;;;;;27.33;25.20;;;;;;;18.66;100.00;101981.47;5019556;28;20433;-40
2023/10/04 09:38:35;;;;;;;28.53;25.20;;;;;;;18.60;100.00;101982.38;5010592;28;20465;-40
2023/10/04 09:41:05;;;;;;;26.00;24.30;;;;;;;18.59;100.00;101979.88;5019535;28;20877;-43
2023/10/04 09:43:35;;;;;;;24.03;22.40;;;;;;;18.65;100.00;101970.88;5011609;28;20437;-39
2023/10/04 09:46:04;;;;;;;25.00;23.10;;;;;;;18.77;100.00;101974.53;5014137;28;20449;-42
2023/10/04 09:48:33;;;;;;;25.73;23.57;;;;;;;18.88;100.00;101971.09;4999089;28;20434;-44
2023/10/04 09:51:04;;;;;;;24.67;23.07;;;;;;;18.95;100.00;101965.63;5012671;28;20429;-39
2023/10/04 09:53:32;;;;;;;21.00;19.40;;;;;;;18.74;100.00;101961.44;5019991;28;20437;-44
2023/10/04 09:56:02;;;;;;;20.73;18.87;;;;;;;18.67;100.00;101960.66;5018666;28;20437;-43
2023/10/04 09:58:32;;;;;;;21.10;19.13;;;;;;;18.61;100.00;101966.94;5018457;28;20472;-45
2023/10/04 10:01:08;;;;;;;20.10;16.90;;;;;;;18.41;100.00;101971.66;5019261;28;20459;-40
2023/10/04 10:03:44;;;;;;;18.20;16.50;;;;;;;18.23;100.00;101970.53;5018949;28;20417;-41
2023/10/04 10:06:16;;;;;;;17.07;15.60;;;;;;;18.49;100.00;101979.50;5013015;28;20443;-45
2023/10/04 10:08:48;;;;;;;18.30;16.40;;;;;;;18.58;100.00;101973.63;5009258;28;20460;-39
2023/10/04 10:11:16;;;;;;;18.07;14.57;;;;;;;18.76;100.00;101970.16;5012397;28;20460;-45
2023/10/04 10:13:46;;;;;;;16.90;14.97;;;;;;;19.04;100.00;101975.13;5015710;28;20439;-43
2023/10/04 10:16:16;;;;;;;16.80;14.97;;;;;;;19.40;100.00;101966.25;5013957;28;20453;-42
2023/10/04 10:18:44;;;;;;;16.80;13.30;;;;;;;19.44;100.00;101970.16;5018096;28;20464;-38
2023/10/04 10:21:12;;;;;;;13.40;12.10;;;;;;;19.28;100.00;101966.13;5018569;28;20436;-41
2023/10/04 10:23:56;;;;;;;17.87;13.20;;;;;;;19.27;100.00;101978.81;5019347;28;20841;-44
2023/10/04 10:26:26;;;;;;;14.70;12.87;;;;;;;19.29;100.00;101957.78;5018939;28;20494;-39
2023/10/04 10:29:03;;;;;;;16.87;14.30;;;;;;;19.28;100.00;101974.25;5010595;28;20473;-40
2023/10/04 10:31:31;;;;;;;16.90;13.00;;;;;;;19.06;100.00;101970.31;5011542;28;20448;-40
2023/10/04 10:34:03;;;;;;;14.67;13.47;;;;;;;19.03;100.00;101976.97;5018819;28;20433;-39
2023/10/04 10:36:32;;;;;;;16.40;14.23;;;;;;;18.94;100.00;101996.41;5019030;28;20962;-40
2023/10/04 10:39:00;;;;;;;14.93;13.37;;;;;;;19.04;100.00;101981.34;5018000;28;20526;-38
2023/10/04 10:42:01;;;;;;;14.37;13.10;;;;;;;19.18;100.00;101982.88;5019375;28;20446;-40
2023/10/04 10:44:37;;;;;;;17.80;12.60;;;;;;;18.79;100.00;101980.53;5018628;28;20499;-41
2023/10/04 10:47:14;;;;;;;13.50;12.20;;;;;;;18.61;100.00;101985.88;5012187;28;20439;-42
2023/10/04 10:49:48;;;;;;;14.30;11.80;;;;;;;18.69;100.00;101989.16;5008279;28;20978;-42
2023/10/04 10:52:30;;;;;;;12.37;11.37;;;;;;;18.98;100.00;102003.03;5007068;28;20513;-43
2023/10/04 10:55:00;;;;;;;10.93;9.97;;;;;;;19.00;100.00;101985.53;5018788;28;20494;-43
2023/10/04 10:57:29;;;;;;;11.10;10.00;;;;;;;19.08;100.00;101996.09;5019374;28;20848;-40
2023/10/04 11:00:04;;;;;;;9.30;8.43;;;;;;;19.26;100.00;102001.50;5010516;28;20540;-42
2023/10/04 11:02:32;;;;;;;12.80;8.93;;;;;;;19.20;95.68;101998.88;5010188;28;20497;-41
2023/10/04 11:05:00;;;;;;;10.87;9.07;;;;;;;19.31;98.48;101998.97;5003073;28;20464;-45
2023/10/04 11:07:28;;;;;;;12.83;8.73;;;;;;;19.35;95.94;102004.78;5021452;28;20432;-40
2023/10/04 11:09:56;;;;;;;9.13;8.30;;;;;;;19.40;100.00;101998.72;5021548;28;20487;-42
2023/10/04 11:12:24;;;;;;;15.57;9.10;;;;;;;19.57;98.68;101995.19;5013779;28;20441;-46